KYKM Airport (Yakima Air Terminal/Mcallister Field) Information

FAA: YKM - ICAO: KYKM

KYKM Airport Location

State Washington
County Yakima
City Yakima
KYKM Airport is 3 miles south of Yakima, WA.
Latitude 46-34-05.4000N
Longitude 120-32-38.6000W
Elevation 1,098ft

KYKM Airport METARs

METAR KYKM 200353Z 25004KT 10SM CLR 08/06 A2979 RMK AO2 SLP094 T00780056
Altimeter 29.79"
Temperature 7.8°C (46.0°F)
Wind 250° at 4KT
Clouds Skies are clear.
Visibility 10.0mi
Time observed: 2021-10-20T03:53:00Z

KYKM Airport Details

Status Operational
Activation November 1937
Ownership Public
Usage Public
Chart SEATTLE
ATC on-site Yes
Beacon schedule sunset-sunrise
Beacon color clear green

KYKM Airport Contacts

Owner CITY OF YAKIMA
Owner address 2300 WEST WASHINGTON AVE, YAKIMA, WA 98903
Owner phone (509) 575-6149
Manager C W KELLOGG
Manager address BOX 663, BATTLEGROUND, WA 98604
Manager phone 206-835-8526

KYKM Airport (Yakima Air Terminal/Mcallister Field) Radio Frequencies

KYKM (Airport) Radio Frequencies

UNICOM 122.95
Common traffic advisory frequency (CTAF) 133.25